sensor_id;sensor_type;location;lat;lon;timestamp;P1;durP1;ratioP1;P2;durP2;ratioP2
50932;SDS011;36921;49.006;9.292;2023-08-30T00:00:04;20.38;;;13.40;;
50932;SDS011;36921;49.006;9.292;2023-08-30T00:02:29;20.55;;;13.68;;
50932;SDS011;36921;49.006;9.292;2023-08-30T00:04:58;22.13;;;13.48;;
50932;SDS011;36921;49.006;9.292;2023-08-30T00:09:49;27.13;;;14.93;;
50932;SDS011;36921;49.006;9.292;2023-08-30T00:12:15;23.92;;;15.60;;
50932;SDS011;36921;49.006;9.292;2023-08-30T00:14:40;24.58;;;15.55;;
50932;SDS011;36921;49.006;9.292;2023-08-30T00:17:06;24.27;;;14.85;;
50932;SDS011;36921;49.006;9.292;2023-08-30T00:19:31;24.17;;;14.77;;
50932;SDS011;36921;49.006;9.292;2023-08-30T00:21:56;28.38;;;15.35;;
50932;SDS011;36921;49.006;9.292;2023-08-30T00:24:22;24.95;;;14.95;;
50932;SDS011;36921;49.006;9.292;2023-08-30T00:26:47;27.20;;;14.82;;
50932;SDS011;36921;49.006;9.292;2023-08-30T00:29:12;21.20;;;14.82;;
50932;SDS011;36921;49.006;9.292;2023-08-30T00:31:38;25.13;;;13.45;;
50932;SDS011;36921;49.006;9.292;2023-08-30T00:34:03;21.00;;;13.13;;
50932;SDS011;36921;49.006;9.292;2023-08-30T00:36:29;21.58;;;13.60;;
50932;SDS011;36921;49.006;9.292;2023-08-30T00:38:54;22.73;;;14.32;;
50932;SDS011;36921;49.006;9.292;2023-08-30T00:41:19;21.40;;;13.02;;
50932;SDS011;36921;49.006;9.292;2023-08-30T00:43:45;22.33;;;14.32;;
50932;SDS011;36921;49.006;9.292;2023-08-30T00:46:10;22.13;;;13.77;;
50932;SDS011;36921;49.006;9.292;2023-08-30T00:48:36;19.92;;;13.18;;
50932;SDS011;36921;49.006;9.292;2023-08-30T00:51:01;24.45;;;12.65;;
50932;SDS011;36921;49.006;9.292;2023-08-30T00:53:27;22.25;;;13.13;;
50932;SDS011;36921;49.006;9.292;2023-08-30T00:55:52;18.42;;;11.75;;
50932;SDS011;36921;49.006;9.292;2023-08-30T00:58:18;26.48;;;13.02;;
50932;SDS011;36921;49.006;9.292;2023-08-30T01:00:43;19.10;;;12.18;;
50932;SDS011;36921;49.006;9.292;2023-08-30T01:03:09;16.75;;;11.68;;
50932;SDS011;36921;49.006;9.292;2023-08-30T01:05:34;17.67;;;12.20;;
50932;SDS011;36921;49.006;9.292;2023-08-30T01:08:00;17.65;;;11.55;;
50932;SDS011;36921;49.006;9.292;2023-08-30T01:10:27;17.50;;;11.90;;
50932;SDS011;36921;49.006;9.292;2023-08-30T01:13:19;18.45;;;11.60;;
50932;SDS011;36921;49.006;9.292;2023-08-30T01:15:48;17.65;;;11.70;;
50932;SDS011;36921;49.006;9.292;2023-08-30T01:18:19;18.38;;;12.00;;
50932;SDS011;36921;49.006;9.292;2023-08-30T01:20:47;19.13;;;12.40;;
50932;SDS011;36921;49.006;9.292;2023-08-30T01:28:33;19.92;;;12.45;;
50932;SDS011;36921;49.006;9.292;2023-08-30T01:31:00;15.70;;;10.93;;
50932;SDS011;36921;49.006;9.292;2023-08-30T01:33:27;22.10;;;12.57;;
50932;SDS011;36921;49.006;9.292;2023-08-30T01:35:55;25.55;;;14.75;;
50932;SDS011;36921;49.006;9.292;2023-08-30T01:38:23;31.15;;;14.98;;
50932;SDS011;36921;49.006;9.292;2023-08-30T01:40:51;32.70;;;16.67;;
50932;SDS011;36921;49.006;9.292;2023-08-30T01:43:18;30.15;;;15.95;;
50932;SDS011;36921;49.006;9.292;2023-08-30T01:45:45;36.22;;;17.27;;
50932;SDS011;36921;49.006;9.292;2023-08-30T01:48:12;31.83;;;16.88;;
50932;SDS011;36921;49.006;9.292;2023-08-30T01:53:07;29.27;;;15.43;;
50932;SDS011;36921;49.006;9.292;2023-08-30T01:55:33;33.15;;;16.70;;
50932;SDS011;36921;49.006;9.292;2023-08-30T01:57:59;29.95;;;16.17;;
50932;SDS011;36921;49.006;9.292;2023-08-30T02:00:24;30.42;;;16.25;;
50932;SDS011;36921;49.006;9.292;2023-08-30T02:02:50;42.60;;;18.38;;
50932;SDS011;36921;49.006;9.292;2023-08-30T02:05:15;43.35;;;18.95;;
50932;SDS011;36921;49.006;9.292;2023-08-30T02:10:16;38.47;;;19.15;;
50932;SDS011;36921;49.006;9.292;2023-08-30T02:12:48;40.40;;;18.88;;
50932;SDS011;36921;49.006;9.292;2023-08-30T02:15:15;42.97;;;20.17;;
50932;SDS011;36921;49.006;9.292;2023-08-30T02:17:42;49.85;;;19.38;;
50932;SDS011;36921;49.006;9.292;2023-08-30T02:20:09;42.55;;;19.27;;
50932;SDS011;36921;49.006;9.292;2023-08-30T02:22:34;41.15;;;19.55;;
50932;SDS011;36921;49.006;9.292;2023-08-30T02:25:00;41.58;;;19.13;;
50932;SDS011;36921;49.006;9.292;2023-08-30T02:27:29;43.78;;;18.65;;
50932;SDS011;36921;49.006;9.292;2023-08-30T02:29:57;42.03;;;17.67;;
50932;SDS011;36921;49.006;9.292;2023-08-30T02:32:23;39.70;;;16.85;;
50932;SDS011;36921;49.006;9.292;2023-08-30T02:34:49;36.47;;;17.85;;
50932;SDS011;36921;49.006;9.292;2023-08-30T02:37:15;29.95;;;15.70;;
50932;SDS011;36921;49.006;9.292;2023-08-30T02:39:41;32.35;;;15.32;;
50932;SDS011;36921;49.006;9.292;2023-08-30T02:42:06;30.38;;;15.20;;
50932;SDS011;36921;49.006;9.292;2023-08-30T02:44:31;26.85;;;14.30;;
50932;SDS011;36921;49.006;9.292;2023-08-30T02:46:57;27.33;;;14.75;;
50932;SDS011;36921;49.006;9.292;2023-08-30T02:49:22;28.70;;;15.13;;
50932;SDS011;36921;49.006;9.292;2023-08-30T02:51:47;25.52;;;13.60;;
50932;SDS011;36921;49.006;9.292;2023-08-30T02:54:12;19.90;;;12.18;;
50932;SDS011;36921;49.006;9.292;2023-08-30T02:56:40;22.60;;;12.80;;
50932;SDS011;36921;49.006;9.292;2023-08-30T02:59:07;21.60;;;12.55;;
50932;SDS011;36921;49.006;9.292;2023-08-30T03:01:32;23.85;;;12.85;;
50932;SDS011;36921;49.006;9.292;2023-08-30T03:03:58;25.35;;;13.77;;
50932;SDS011;36921;49.006;9.292;2023-08-30T03:06:23;24.00;;;13.32;;
50932;SDS011;36921;49.006;9.292;2023-08-30T03:08:48;30.25;;;13.75;;
50932;SDS011;36921;49.006;9.292;2023-08-30T03:11:14;25.80;;;13.15;;
50932;SDS011;36921;49.006;9.292;2023-08-30T03:13:39;22.48;;;13.02;;
50932;SDS011;36921;49.006;9.292;2023-08-30T03:16:11;28.92;;;14.38;;
50932;SDS011;36921;49.006;9.292;2023-08-30T03:18:37;21.67;;;12.75;;
50932;SDS011;36921;49.006;9.292;2023-08-30T03:21:03;28.30;;;13.88;;
50932;SDS011;36921;49.006;9.292;2023-08-30T03:23:28;25.67;;;14.10;;
50932;SDS011;36921;49.006;9.292;2023-08-30T03:25:54;25.08;;;14.02;;
50932;SDS011;36921;49.006;9.292;2023-08-30T03:28:21;23.27;;;13.98;;
50932;SDS011;36921;49.006;9.292;2023-08-30T03:30:46;30.90;;;15.82;;
50932;SDS011;36921;49.006;9.292;2023-08-30T03:33:12;30.35;;;15.73;;
50932;SDS011;36921;49.006;9.292;2023-08-30T03:35:38;27.80;;;15.15;;
50932;SDS011;36921;49.006;9.292;2023-08-30T03:38:03;27.85;;;14.93;;
50932;SDS011;36921;49.006;9.292;2023-08-30T03:40:29;29.23;;;14.77;;
50932;SDS011;36921;49.006;9.292;2023-08-30T03:42:55;28.05;;;13.88;;
50932;SDS011;36921;49.006;9.292;2023-08-30T03:45:20;22.27;;;13.20;;
50932;SDS011;36921;49.006;9.292;2023-08-30T03:47:45;26.85;;;13.88;;
50932;SDS011;36921;49.006;9.292;2023-08-30T03:50:11;21.00;;;12.93;;
50932;SDS011;36921;49.006;9.292;2023-08-30T03:52:36;23.02;;;11.48;;
50932;SDS011;36921;49.006;9.292;2023-08-30T03:55:02;20.83;;;12.98;;
50932;SDS011;36921;49.006;9.292;2023-08-30T03:57:27;18.90;;;12.05;;
50932;SDS011;36921;49.006;9.292;2023-08-30T03:59:52;23.13;;;13.05;;
50932;SDS011;36921;49.006;9.292;2023-08-30T04:02:18;20.33;;;11.98;;
50932;SDS011;36921;49.006;9.292;2023-08-30T04:04:46;23.17;;;12.55;;
50932;SDS011;36921;49.006;9.292;2023-08-30T04:07:12;26.80;;;14.93;;
50932;SDS011;36921;49.006;9.292;2023-08-30T04:09:37;32.05;;;15.60;;
50932;SDS011;36921;49.006;9.292;2023-08-30T04:12:03;29.95;;;15.80;;
50932;SDS011;36921;49.006;9.292;2023-08-30T04:14:29;33.30;;;16.40;;
50932;SDS011;36921;49.006;9.292;2023-08-30T04:16:55;32.75;;;16.80;;
50932;SDS011;36921;49.006;9.292;2023-08-30T04:19:20;28.17;;;15.23;;
50932;SDS011;36921;49.006;9.292;2023-08-30T04:21:45;28.88;;;15.57;;
50932;SDS011;36921;49.006;9.292;2023-08-30T04:24:11;35.40;;;15.50;;
50932;SDS011;36921;49.006;9.292;2023-08-30T04:26:36;32.05;;;14.98;;
50932;SDS011;36921;49.006;9.292;2023-08-30T04:29:02;23.60;;;14.10;;
50932;SDS011;36921;49.006;9.292;2023-08-30T04:31:28;20.92;;;13.95;;
50932;SDS011;36921;49.006;9.292;2023-08-30T04:33:53;23.40;;;14.00;;
50932;SDS011;36921;49.006;9.292;2023-08-30T04:36:20;23.98;;;13.52;;
50932;SDS011;36921;49.006;9.292;2023-08-30T04:38:46;21.25;;;12.95;;
50932;SDS011;36921;49.006;9.292;2023-08-30T04:41:11;23.25;;;13.18;;
50932;SDS011;36921;49.006;9.292;2023-08-30T04:43:37;22.00;;;13.60;;
50932;SDS011;36921;49.006;9.292;2023-08-30T04:46:02;23.60;;;14.10;;
50932;SDS011;36921;49.006;9.292;2023-08-30T04:48:27;33.10;;;14.55;;
50932;SDS011;36921;49.006;9.292;2023-08-30T04:51:02;33.47;;;13.70;;
50932;SDS011;36921;49.006;9.292;2023-08-30T04:53:29;26.42;;;13.38;;
50932;SDS011;36921;49.006;9.292;2023-08-30T04:55:54;23.83;;;13.20;;
50932;SDS011;36921;49.006;9.292;2023-08-30T04:58:20;25.17;;;14.27;;
50932;SDS011;36921;49.006;9.292;2023-08-30T05:00:45;21.73;;;12.82;;
50932;SDS011;36921;49.006;9.292;2023-08-30T05:03:11;18.98;;;12.43;;
50932;SDS011;36921;49.006;9.292;2023-08-30T05:05:36;22.23;;;12.85;;
50932;SDS011;36921;49.006;9.292;2023-08-30T05:08:02;20.02;;;11.77;;
50932;SDS011;36921;49.006;9.292;2023-08-30T05:10:28;16.75;;;10.82;;
50932;SDS011;36921;49.006;9.292;2023-08-30T05:12:53;19.20;;;12.20;;
50932;SDS011;36921;49.006;9.292;2023-08-30T05:15:19;17.90;;;12.13;;
50932;SDS011;36921;49.006;9.292;2023-08-30T05:17:44;17.08;;;11.68;;
50932;SDS011;36921;49.006;9.292;2023-08-30T05:20:10;19.25;;;11.07;;
50932;SDS011;36921;49.006;9.292;2023-08-30T05:22:35;14.65;;;9.80;;
50932;SDS011;36921;49.006;9.292;2023-08-30T05:25:00;15.88;;;10.60;;
50932;SDS011;36921;49.006;9.292;2023-08-30T05:27:26;17.33;;;10.68;;
50932;SDS011;36921;49.006;9.292;2023-08-30T05:29:52;13.07;;;10.35;;
50932;SDS011;36921;49.006;9.292;2023-08-30T05:32:17;17.73;;;10.30;;
50932;SDS011;36921;49.006;9.292;2023-08-30T05:34:42;15.02;;;10.13;;
50932;SDS011;36921;49.006;9.292;2023-08-30T05:37:08;12.00;;;9.85;;
50932;SDS011;36921;49.006;9.292;2023-08-30T05:39:34;13.30;;;10.00;;
50932;SDS011;36921;49.006;9.292;2023-08-30T05:41:59;21.77;;;10.25;;
50932;SDS011;36921;49.006;9.292;2023-08-30T05:44:25;15.07;;;10.48;;
50932;SDS011;36921;49.006;9.292;2023-08-30T05:46:50;14.38;;;11.02;;
50932;SDS011;36921;49.006;9.292;2023-08-30T05:49:16;19.45;;;11.13;;
50932;SDS011;36921;49.006;9.292;2023-08-30T05:51:41;15.10;;;10.95;;
50932;SDS011;36921;49.006;9.292;2023-08-30T05:54:06;14.13;;;10.60;;
50932;SDS011;36921;49.006;9.292;2023-08-30T05:56:32;15.82;;;10.60;;
50932;SDS011;36921;49.006;9.292;2023-08-30T05:58:57;15.93;;;10.13;;
50932;SDS011;36921;49.006;9.292;2023-08-30T06:01:22;15.02;;;11.07;;
50932;SDS011;36921;49.006;9.292;2023-08-30T06:06:15;13.90;;;10.07;;
50932;SDS011;36921;49.006;9.292;2023-08-30T06:08:41;22.60;;;14.50;;
50932;SDS011;36921;49.006;9.292;2023-08-30T06:11:06;21.20;;;16.58;;
50932;SDS011;36921;49.006;9.292;2023-08-30T06:13:32;17.67;;;13.18;;
50932;SDS011;36921;49.006;9.292;2023-08-30T06:15:57;14.98;;;10.00;;
50932;SDS011;36921;49.006;9.292;2023-08-30T06:18:23;15.45;;;11.95;;
50932;SDS011;36921;49.006;9.292;2023-08-30T06:20:48;18.08;;;12.18;;
50932;SDS011;36921;49.006;9.292;2023-08-30T06:23:14;12.32;;;8.60;;
50932;SDS011;36921;49.006;9.292;2023-08-30T06:28:09;12.65;;;7.95;;
50932;SDS011;36921;49.006;9.292;2023-08-30T06:30:34;11.40;;;7.60;;
50932;SDS011;36921;49.006;9.292;2023-08-30T06:33:00;11.80;;;9.77;;
50932;SDS011;36921;49.006;9.292;2023-08-30T06:35:25;12.40;;;9.32;;
50932;SDS011;36921;49.006;9.292;2023-08-30T06:37:51;10.55;;;8.43;;
50932;SDS011;36921;49.006;9.292;2023-08-30T06:40:17;10.82;;;7.47;;
50932;SDS011;36921;49.006;9.292;2023-08-30T06:42:42;8.90;;;7.43;;
50932;SDS011;36921;49.006;9.292;2023-08-30T06:45:08;11.05;;;6.88;;
50932;SDS011;36921;49.006;9.292;2023-08-30T06:47:34;10.60;;;7.20;;
50932;SDS011;36921;49.006;9.292;2023-08-30T06:50:00;10.80;;;7.88;;
50932;SDS011;36921;49.006;9.292;2023-08-30T06:52:25;9.23;;;7.57;;
50932;SDS011;36921;49.006;9.292;2023-08-30T06:54:51;11.13;;;7.38;;
50932;SDS011;36921;49.006;9.292;2023-08-30T06:57:16;16.05;;;6.57;;
50932;SDS011;36921;49.006;9.292;2023-08-30T06:59:42;10.07;;;6.78;;
50932;SDS011;36921;49.006;9.292;2023-08-30T07:02:07;9.95;;;6.78;;
50932;SDS011;36921;49.006;9.292;2023-08-30T07:04:33;8.20;;;6.70;;
50932;SDS011;36921;49.006;9.292;2023-08-30T07:06:58;9.77;;;7.18;;
50932;SDS011;36921;49.006;9.292;2023-08-30T07:09:24;9.95;;;7.28;;
50932;SDS011;36921;49.006;9.292;2023-08-30T07:11:55;8.30;;;6.75;;
50932;SDS011;36921;49.006;9.292;2023-08-30T07:14:20;10.02;;;6.82;;
50932;SDS011;36921;49.006;9.292;2023-08-30T07:16:46;9.80;;;6.75;;
50932;SDS011;36921;49.006;9.292;2023-08-30T07:19:14;10.00;;;7.10;;
50932;SDS011;36921;49.006;9.292;2023-08-30T07:21:40;10.60;;;6.40;;
50932;SDS011;36921;49.006;9.292;2023-08-30T07:24:08;12.25;;;6.65;;
50932;SDS011;36921;49.006;9.292;2023-08-30T07:26:34;8.23;;;6.17;;
50932;SDS011;36921;49.006;9.292;2023-08-30T07:28:59;10.90;;;6.07;;
50932;SDS011;36921;49.006;9.292;2023-08-30T07:31:25;7.10;;;6.40;;
50932;SDS011;36921;49.006;9.292;2023-08-30T07:33:50;8.10;;;5.65;;
50932;SDS011;36921;49.006;9.292;2023-08-30T07:36:15;9.82;;;6.10;;
50932;SDS011;36921;49.006;9.292;2023-08-30T07:38:41;7.72;;;5.85;;
50932;SDS011;36921;49.006;9.292;2023-08-30T07:41:06;8.55;;;6.00;;
50932;SDS011;36921;49.006;9.292;2023-08-30T07:43:32;7.95;;;5.53;;
50932;SDS011;36921;49.006;9.292;2023-08-30T07:45:57;10.23;;;5.70;;
50932;SDS011;36921;49.006;9.292;2023-08-30T07:48:23;10.27;;;5.60;;
50932;SDS011;36921;49.006;9.292;2023-08-30T07:50:49;6.57;;;5.57;;
50932;SDS011;36921;49.006;9.292;2023-08-30T07:53:15;5.35;;;4.80;;
50932;SDS011;36921;49.006;9.292;2023-08-30T07:55:40;7.13;;;5.45;;
50932;SDS011;36921;49.006;9.292;2023-08-30T07:58:05;6.78;;;5.15;;
50932;SDS011;36921;49.006;9.292;2023-08-30T08:00:32;5.78;;;4.70;;
50932;SDS011;36921;49.006;9.292;2023-08-30T08:02:57;5.25;;;4.60;;
50932;SDS011;36921;49.006;9.292;2023-08-30T08:05:22;11.20;;;4.60;;
50932;SDS011;36921;49.006;9.292;2023-08-30T08:07:51;4.95;;;4.32;;
50932;SDS011;36921;49.006;9.292;2023-08-30T08:10:17;6.22;;;4.80;;
50932;SDS011;36921;49.006;9.292;2023-08-30T08:12:43;5.85;;;4.28;;
50932;SDS011;36921;49.006;9.292;2023-08-30T08:15:09;5.20;;;3.80;;
50932;SDS011;36921;49.006;9.292;2023-08-30T08:17:34;5.28;;;3.95;;
50932;SDS011;36921;49.006;9.292;2023-08-30T08:20:00;4.00;;;3.30;;
50932;SDS011;36921;49.006;9.292;2023-08-30T08:22:26;3.83;;;3.30;;
50932;SDS011;36921;49.006;9.292;2023-08-30T08:24:51;4.22;;;3.80;;
50932;SDS011;36921;49.006;9.292;2023-08-30T08:27:18;6.78;;;3.45;;
50932;SDS011;36921;49.006;9.292;2023-08-30T08:29:44;4.03;;;3.63;;
50932;SDS011;36921;49.006;9.292;2023-08-30T08:32:09;8.13;;;3.60;;
50932;SDS011;36921;49.006;9.292;2023-08-30T08:34:35;5.55;;;3.78;;
50932;SDS011;36921;49.006;9.292;2023-08-30T08:37:00;6.20;;;3.70;;
50932;SDS011;36921;49.006;9.292;2023-08-30T08:39:26;9.40;;;3.58;;
50932;SDS011;36921;49.006;9.292;2023-08-30T08:41:51;7.75;;;4.07;;
50932;SDS011;36921;49.006;9.292;2023-08-30T08:44:18;4.95;;;4.13;;
50932;SDS011;36921;49.006;9.292;2023-08-30T08:46:44;6.63;;;3.83;;
50932;SDS011;36921;49.006;9.292;2023-08-30T08:49:12;7.13;;;3.75;;
50932;SDS011;36921;49.006;9.292;2023-08-30T08:51:39;4.82;;;3.72;;
50932;SDS011;36921;49.006;9.292;2023-08-30T08:54:05;6.28;;;3.67;;
50932;SDS011;36921;49.006;9.292;2023-08-30T08:56:31;3.92;;;3.08;;
50932;SDS011;36921;49.006;9.292;2023-08-30T08:58:57;4.55;;;2.78;;
50932;SDS011;36921;49.006;9.292;2023-08-30T09:01:24;3.83;;;2.97;;
50932;SDS011;36921;49.006;9.292;2023-08-30T09:03:50;4.65;;;2.90;;
50932;SDS011;36921;49.006;9.292;2023-08-30T09:06:15;4.78;;;2.70;;
50932;SDS011;36921;49.006;9.292;2023-08-30T09:08:41;3.72;;;2.72;;
50932;SDS011;36921;49.006;9.292;2023-08-30T09:11:07;3.80;;;3.00;;
50932;SDS011;36921;49.006;9.292;2023-08-30T09:13:32;4.80;;;2.53;;
50932;SDS011;36921;49.006;9.292;2023-08-30T09:15:57;6.18;;;3.10;;
50932;SDS011;36921;49.006;9.292;2023-08-30T09:18:24;3.72;;;2.70;;
50932;SDS011;36921;49.006;9.292;2023-08-30T09:20:52;4.80;;;2.45;;
50932;SDS011;36921;49.006;9.292;2023-08-30T09:23:18;4.30;;;2.50;;
50932;SDS011;36921;49.006;9.292;2023-08-30T09:25:53;3.83;;;2.10;;
50932;SDS011;36921;49.006;9.292;2023-08-30T09:28:20;3.33;;;2.17;;
50932;SDS011;36921;49.006;9.292;2023-08-30T09:30:49;2.63;;;2.10;;
50932;SDS011;36921;49.006;9.292;2023-08-30T09:33:20;3.90;;;2.60;;
50932;SDS011;36921;49.006;9.292;2023-08-30T09:35:47;2.92;;;2.50;;
50932;SDS011;36921;49.006;9.292;2023-08-30T09:38:18;3.03;;;2.10;;
50932;SDS011;36921;49.006;9.292;2023-08-30T09:40:44;3.30;;;2.08;;
50932;SDS011;36921;49.006;9.292;2023-08-30T09:43:11;2.95;;;2.20;;
50932;SDS011;36921;49.006;9.292;2023-08-30T09:45:37;3.30;;;1.90;;
50932;SDS011;36921;49.006;9.292;2023-08-30T09:48:03;2.55;;;1.58;;
50932;SDS011;36921;49.006;9.292;2023-08-30T09:50:30;3.58;;;1.88;;
50932;SDS011;36921;49.006;9.292;2023-08-30T09:52:59;4.63;;;2.05;;
50932;SDS011;36921;49.006;9.292;2023-08-30T09:55:30;4.43;;;1.95;;
50932;SDS011;36921;49.006;9.292;2023-08-30T09:57:56;3.75;;;2.10;;
50932;SDS011;36921;49.006;9.292;2023-08-30T10:00:21;2.50;;;1.88;;
50932;SDS011;36921;49.006;9.292;2023-08-30T10:02:47;3.92;;;1.80;;
50932;SDS011;36921;49.006;9.292;2023-08-30T10:05:13;2.58;;;1.42;;
50932;SDS011;36921;49.006;9.292;2023-08-30T10:07:39;2.47;;;1.52;;
50932;SDS011;36921;49.006;9.292;2023-08-30T10:10:06;2.55;;;1.80;;
50932;SDS011;36921;49.006;9.292;2023-08-30T10:12:32;1.98;;;1.17;;
50932;SDS011;36921;49.006;9.292;2023-08-30T10:14:58;3.50;;;1.80;;
50932;SDS011;36921;49.006;9.292;2023-08-30T10:17:26;2.72;;;1.80;;
50932;SDS011;36921;49.006;9.292;2023-08-30T10:19:53;2.65;;;1.90;;
50932;SDS011;36921;49.006;9.292;2023-08-30T10:22:21;2.28;;;1.60;;
50932;SDS011;36921;49.006;9.292;2023-08-30T10:24:49;3.08;;;1.85;;
50932;SDS011;36921;49.006;9.292;2023-08-30T10:27:19;2.13;;;1.45;;
50932;SDS011;36921;49.006;9.292;2023-08-30T10:29:46;2.85;;;1.90;;
50932;SDS011;36921;49.006;9.292;2023-08-30T10:32:13;3.17;;;1.40;;
50932;SDS011;36921;49.006;9.292;2023-08-30T10:34:47;1.55;;;1.30;;
50932;SDS011;36921;49.006;9.292;2023-08-30T10:37:14;1.48;;;1.30;;
50932;SDS011;36921;49.006;9.292;2023-08-30T10:39:40;2.45;;;1.20;;
50932;SDS011;36921;49.006;9.292;2023-08-30T10:42:14;1.85;;;1.17;;
50932;SDS011;36921;49.006;9.292;2023-08-30T10:44:50;3.20;;;1.40;;
50932;SDS011;36921;49.006;9.292;2023-08-30T10:47:29;5.85;;;1.48;;
50932;SDS011;36921;49.006;9.292;2023-08-30T10:49:56;1.92;;;1.00;;
50932;SDS011;36921;49.006;9.292;2023-08-30T10:52:23;4.83;;;1.40;;
50932;SDS011;36921;49.006;9.292;2023-08-30T10:54:50;2.15;;;1.40;;
50932;SDS011;36921;49.006;9.292;2023-08-30T10:57:18;3.22;;;1.20;;
50932;SDS011;36921;49.006;9.292;2023-08-30T11:00:07;1.85;;;1.30;;
50932;SDS011;36921;49.006;9.292;2023-08-30T11:02:37;2.47;;;1.17;;
50932;SDS011;36921;49.006;9.292;2023-08-30T11:05:06;2.22;;;1.00;;
50932;SDS011;36921;49.006;9.292;2023-08-30T11:07:33;2.55;;;1.20;;
50932;SDS011;36921;49.006;9.292;2023-08-30T11:09:59;2.17;;;0.90;;
50932;SDS011;36921;49.006;9.292;2023-08-30T11:12:25;2.42;;;1.48;;
50932;SDS011;36921;49.006;9.292;2023-08-30T11:14:51;2.45;;;1.33;;
50932;SDS011;36921;49.006;9.292;2023-08-30T11:17:18;2.60;;;1.38;;
50932;SDS011;36921;49.006;9.292;2023-08-30T11:19:44;2.53;;;1.30;;
50932;SDS011;36921;49.006;9.292;2023-08-30T11:22:10;1.48;;;1.20;;
50932;SDS011;36921;49.006;9.292;2023-08-30T11:24:37;3.03;;;1.63;;
50932;SDS011;36921;49.006;9.292;2023-08-30T11:27:03;1.42;;;1.25;;
50932;SDS011;36921;49.006;9.292;2023-08-30T11:29:29;2.08;;;1.23;;
50932;SDS011;36921;49.006;9.292;2023-08-30T11:31:54;1.70;;;1.17;;
50932;SDS011;36921;49.006;9.292;2023-08-30T11:34:20;3.53;;;1.58;;
50932;SDS011;36921;49.006;9.292;2023-08-30T11:36:49;1.92;;;1.25;;
50932;SDS011;36921;49.006;9.292;2023-08-30T11:39:16;3.20;;;1.60;;
50932;SDS011;36921;49.006;9.292;2023-08-30T11:41:42;3.60;;;1.60;;
50932;SDS011;36921;49.006;9.292;2023-08-30T11:44:08;2.53;;;1.77;;
50932;SDS011;36921;49.006;9.292;2023-08-30T11:46:34;2.40;;;1.30;;
50932;SDS011;36921;49.006;9.292;2023-08-30T11:49:00;1.98;;;1.23;;
50932;SDS011;36921;49.006;9.292;2023-08-30T11:51:25;1.90;;;1.23;;
50932;SDS011;36921;49.006;9.292;2023-08-30T11:53:51;4.28;;;1.90;;
50932;SDS011;36921;49.006;9.292;2023-08-30T11:56:19;4.05;;;1.42;;
50932;SDS011;36921;49.006;9.292;2023-08-30T11:58:44;4.20;;;1.65;;
50932;SDS011;36921;49.006;9.292;2023-08-30T12:01:10;5.10;;;2.05;;
50932;SDS011;36921;49.006;9.292;2023-08-30T12:03:36;3.88;;;1.73;;
50932;SDS011;36921;49.006;9.292;2023-08-30T12:06:02;2.60;;;1.50;;
50932;SDS011;36921;49.006;9.292;2023-08-30T12:08:30;4.22;;;1.52;;
50932;SDS011;36921;49.006;9.292;2023-08-30T12:13:25;4.07;;;1.52;;
50932;SDS011;36921;49.006;9.292;2023-08-30T12:15:55;2.03;;;1.33;;
50932;SDS011;36921;49.006;9.292;2023-08-30T12:18:43;2.03;;;1.55;;
50932;SDS011;36921;49.006;9.292;2023-08-30T12:21:07;3.97;;;1.73;;
50932;SDS011;36921;49.006;9.292;2023-08-30T12:23:33;3.78;;;1.60;;
50932;SDS011;36921;49.006;9.292;2023-08-30T12:28:25;1.90;;;1.63;;
50932;SDS011;36921;49.006;9.292;2023-08-30T12:30:53;3.20;;;1.70;;
50932;SDS011;36921;49.006;9.292;2023-08-30T12:33:19;5.18;;;1.58;;
50932;SDS011;36921;49.006;9.292;2023-08-30T12:35:45;2.45;;;1.50;;
50932;SDS011;36921;49.006;9.292;2023-08-30T12:38:11;4.22;;;1.50;;
50932;SDS011;36921;49.006;9.292;2023-08-30T12:40:45;1.83;;;1.45;;
50932;SDS011;36921;49.006;9.292;2023-08-30T12:43:15;2.15;;;1.67;;
50932;SDS011;36921;49.006;9.292;2023-08-30T12:45:41;2.30;;;1.50;;
50932;SDS011;36921;49.006;9.292;2023-08-30T12:48:08;2.97;;;1.48;;
50932;SDS011;36921;49.006;9.292;2023-08-30T12:50:37;3.58;;;1.40;;
50932;SDS011;36921;49.006;9.292;2023-08-30T12:55:32;2.72;;;1.40;;
50932;SDS011;36921;49.006;9.292;2023-08-30T12:57:59;2.92;;;1.40;;
50932;SDS011;36921;49.006;9.292;2023-08-30T13:00:25;4.25;;;1.50;;
50932;SDS011;36921;49.006;9.292;2023-08-30T13:02:51;3.63;;;1.55;;
50932;SDS011;36921;49.006;9.292;2023-08-30T13:05:17;2.70;;;1.88;;
50932;SDS011;36921;49.006;9.292;2023-08-30T13:07:42;3.08;;;1.58;;
50932;SDS011;36921;49.006;9.292;2023-08-30T13:10:08;3.00;;;1.80;;
50932;SDS011;36921;49.006;9.292;2023-08-30T13:12:34;2.40;;;1.60;;
50932;SDS011;36921;49.006;9.292;2023-08-30T13:15:00;2.00;;;1.40;;
50932;SDS011;36921;49.006;9.292;2023-08-30T13:17:26;5.00;;;1.73;;
50932;SDS011;36921;49.006;9.292;2023-08-30T13:19:51;2.70;;;1.60;;
50932;SDS011;36921;49.006;9.292;2023-08-30T13:22:17;2.95;;;1.60;;
50932;SDS011;36921;49.006;9.292;2023-08-30T13:24:43;2.95;;;1.58;;
50932;SDS011;36921;49.006;9.292;2023-08-30T13:27:08;4.68;;;1.60;;
50932;SDS011;36921;49.006;9.292;2023-08-30T13:29:34;2.58;;;1.67;;
50932;SDS011;36921;49.006;9.292;2023-08-30T13:31:59;1.83;;;1.48;;
50932;SDS011;36921;49.006;9.292;2023-08-30T13:34:25;3.50;;;1.35;;
50932;SDS011;36921;49.006;9.292;2023-08-30T13:36:50;3.10;;;1.48;;
50932;SDS011;36921;49.006;9.292;2023-08-30T13:39:16;4.18;;;1.35;;
50932;SDS011;36921;49.006;9.292;2023-08-30T13:41:42;2.72;;;1.30;;
50932;SDS011;36921;49.006;9.292;2023-08-30T13:44:07;2.53;;;1.33;;
50932;SDS011;36921;49.006;9.292;2023-08-30T13:46:33;2.80;;;1.60;;
50932;SDS011;36921;49.006;9.292;2023-08-30T13:48:58;1.67;;;1.30;;
50932;SDS011;36921;49.006;9.292;2023-08-30T13:51:24;1.92;;;1.00;;
50932;SDS011;36921;49.006;9.292;2023-08-30T13:53:51;2.85;;;1.42;;
50932;SDS011;36921;49.006;9.292;2023-08-30T13:56:17;2.33;;;1.08;;
50932;SDS011;36921;49.006;9.292;2023-08-30T13:58:43;2.40;;;1.20;;
50932;SDS011;36921;49.006;9.292;2023-08-30T14:01:10;2.00;;;1.25;;
50932;SDS011;36921;49.006;9.292;2023-08-30T14:03:35;1.10;;;1.00;;
50932;SDS011;36921;49.006;9.292;2023-08-30T14:06:01;2.20;;;1.13;;
50932;SDS011;36921;49.006;9.292;2023-08-30T14:08:26;1.85;;;1.33;;
50932;SDS011;36921;49.006;9.292;2023-08-30T14:10:51;1.45;;;1.00;;
50932;SDS011;36921;49.006;9.292;2023-08-30T14:13:17;1.83;;;1.20;;
50932;SDS011;36921;49.006;9.292;2023-08-30T14:15:42;2.20;;;1.20;;
50932;SDS011;36921;49.006;9.292;2023-08-30T14:18:08;2.88;;;1.40;;
50932;SDS011;36921;49.006;9.292;2023-08-30T14:20:33;2.42;;;1.35;;
50932;SDS011;36921;49.006;9.292;2023-08-30T14:22:59;2.78;;;1.75;;
50932;SDS011;36921;49.006;9.292;2023-08-30T14:25:24;4.10;;;1.70;;
50932;SDS011;36921;49.006;9.292;2023-08-30T14:27:49;1.63;;;1.17;;
50932;SDS011;36921;49.006;9.292;2023-08-30T14:30:15;2.60;;;1.50;;
50932;SDS011;36921;49.006;9.292;2023-08-30T14:32:41;3.40;;;1.85;;
50932;SDS011;36921;49.006;9.292;2023-08-30T14:35:07;4.20;;;1.63;;
50932;SDS011;36921;49.006;9.292;2023-08-30T14:37:32;2.67;;;1.33;;
50932;SDS011;36921;49.006;9.292;2023-08-30T14:40:04;6.25;;;1.48;;
50932;SDS011;36921;49.006;9.292;2023-08-30T14:44:57;2.92;;;1.30;;
50932;SDS011;36921;49.006;9.292;2023-08-30T14:47:22;2.28;;;1.30;;
50932;SDS011;36921;49.006;9.292;2023-08-30T14:49:48;4.95;;;1.90;;
50932;SDS011;36921;49.006;9.292;2023-08-30T14:52:13;3.42;;;1.60;;
50932;SDS011;36921;49.006;9.292;2023-08-30T14:54:39;4.72;;;1.55;;
50932;SDS011;36921;49.006;9.292;2023-08-30T14:57:04;1.88;;;1.50;;